sensor_id;sensor_type;location;lat;lon;timestamp;P1;durP1;ratioP1;P2;durP2;ratioP2
13849;SDS011;6995;52.618;13.488;2023-08-12T00:00:18;34.10;;;32.33;;
13849;SDS011;6995;52.618;13.488;2023-08-12T00:02:44;33.50;;;31.60;;
13849;SDS011;6995;52.618;13.488;2023-08-12T00:05:10;32.88;;;31.10;;
13849;SDS011;6995;52.618;13.488;2023-08-12T00:07:37;31.35;;;29.60;;
13849;SDS011;6995;52.618;13.488;2023-08-12T00:10:03;37.90;;;35.88;;
13849;SDS011;6995;52.618;13.488;2023-08-12T00:12:33;31.13;;;29.30;;
13849;SDS011;6995;52.618;13.488;2023-08-12T00:15:00;33.50;;;31.75;;
13849;SDS011;6995;52.618;13.488;2023-08-12T00:17:26;32.08;;;30.38;;
13849;SDS011;6995;52.618;13.488;2023-08-12T00:19:52;30.77;;;28.88;;
13849;SDS011;6995;52.618;13.488;2023-08-12T00:22:18;32.00;;;30.20;;
13849;SDS011;6995;52.618;13.488;2023-08-12T00:24:43;31.35;;;29.65;;
13849;SDS011;6995;52.618;13.488;2023-08-12T00:27:09;33.60;;;31.88;;
13849;SDS011;6995;52.618;13.488;2023-08-12T00:29:35;34.72;;;32.90;;
13849;SDS011;6995;52.618;13.488;2023-08-12T00:32:01;34.92;;;32.70;;
13849;SDS011;6995;52.618;13.488;2023-08-12T00:34:27;34.03;;;32.30;;
13849;SDS011;6995;52.618;13.488;2023-08-12T00:36:53;38.60;;;36.70;;
13849;SDS011;6995;52.618;13.488;2023-08-12T00:39:19;36.92;;;34.50;;
13849;SDS011;6995;52.618;13.488;2023-08-12T00:41:44;34.88;;;33.13;;
13849;SDS011;6995;52.618;13.488;2023-08-12T00:44:10;35.63;;;33.45;;
13849;SDS011;6995;52.618;13.488;2023-08-12T00:46:37;36.30;;;33.88;;
13849;SDS011;6995;52.618;13.488;2023-08-12T00:49:05;37.13;;;35.22;;
13849;SDS011;6995;52.618;13.488;2023-08-12T00:51:31;47.00;;;44.15;;
13849;SDS011;6995;52.618;13.488;2023-08-12T00:53:57;38.28;;;36.38;;
13849;SDS011;6995;52.618;13.488;2023-08-12T00:56:23;39.00;;;36.80;;
13849;SDS011;6995;52.618;13.488;2023-08-12T00:58:51;40.08;;;38.08;;
13849;SDS011;6995;52.618;13.488;2023-08-12T01:01:18;37.47;;;35.25;;
13849;SDS011;6995;52.618;13.488;2023-08-12T01:03:45;37.30;;;35.30;;
13849;SDS011;6995;52.618;13.488;2023-08-12T01:06:11;35.28;;;33.58;;
13849;SDS011;6995;52.618;13.488;2023-08-12T01:08:37;35.80;;;33.78;;
13849;SDS011;6995;52.618;13.488;2023-08-12T01:11:08;33.58;;;31.77;;
13849;SDS011;6995;52.618;13.488;2023-08-12T01:16:51;33.90;;;31.85;;
13849;SDS011;6995;52.618;13.488;2023-08-12T01:19:35;36.03;;;34.22;;
13849;SDS011;6995;52.618;13.488;2023-08-12T01:22:04;35.63;;;33.63;;
13849;SDS011;6995;52.618;13.488;2023-08-12T01:24:33;34.70;;;32.63;;
13849;SDS011;6995;52.618;13.488;2023-08-12T01:27:00;34.58;;;32.67;;
13849;SDS011;6995;52.618;13.488;2023-08-12T01:29:26;33.92;;;32.13;;
13849;SDS011;6995;52.618;13.488;2023-08-12T01:31:55;35.42;;;33.35;;
13849;SDS011;6995;52.618;13.488;2023-08-12T01:36:55;42.38;;;40.17;;
13849;SDS011;6995;52.618;13.488;2023-08-12T01:39:22;36.63;;;34.53;;
13849;SDS011;6995;52.618;13.488;2023-08-12T01:41:49;37.58;;;35.65;;
13849;SDS011;6995;52.618;13.488;2023-08-12T01:44:16;36.75;;;34.40;;
13849;SDS011;6995;52.618;13.488;2023-08-12T01:46:45;37.88;;;35.70;;
13849;SDS011;6995;52.618;13.488;2023-08-12T01:49:11;39.75;;;37.67;;
13849;SDS011;6995;52.618;13.488;2023-08-12T01:51:37;35.83;;;33.92;;
13849;SDS011;6995;52.618;13.488;2023-08-12T01:54:02;36.70;;;34.83;;
13849;SDS011;6995;52.618;13.488;2023-08-12T01:56:28;34.00;;;32.38;;
13849;SDS011;6995;52.618;13.488;2023-08-12T01:58:54;35.60;;;33.75;;
13849;SDS011;6995;52.618;13.488;2023-08-12T02:01:19;33.95;;;31.98;;
13849;SDS011;6995;52.618;13.488;2023-08-12T02:03:45;37.47;;;35.47;;
13849;SDS011;6995;52.618;13.488;2023-08-12T02:06:10;39.55;;;37.35;;
13849;SDS011;6995;52.618;13.488;2023-08-12T02:08:36;39.17;;;37.20;;
13849;SDS011;6995;52.618;13.488;2023-08-12T02:11:02;39.78;;;37.55;;
13849;SDS011;6995;52.618;13.488;2023-08-12T02:13:27;38.63;;;36.63;;
13849;SDS011;6995;52.618;13.488;2023-08-12T02:15:53;41.20;;;39.13;;
13849;SDS011;6995;52.618;13.488;2023-08-12T02:18:19;41.15;;;39.05;;
13849;SDS011;6995;52.618;13.488;2023-08-12T02:20:46;42.30;;;40.13;;
13849;SDS011;6995;52.618;13.488;2023-08-12T02:23:13;42.65;;;40.55;;
13849;SDS011;6995;52.618;13.488;2023-08-12T02:25:39;40.80;;;38.78;;
13849;SDS011;6995;52.618;13.488;2023-08-12T02:28:04;42.58;;;40.25;;
13849;SDS011;6995;52.618;13.488;2023-08-12T02:30:30;42.38;;;40.25;;
13849;SDS011;6995;52.618;13.488;2023-08-12T02:32:56;42.45;;;40.35;;
13849;SDS011;6995;52.618;13.488;2023-08-12T02:35:21;47.35;;;44.92;;
13849;SDS011;6995;52.618;13.488;2023-08-12T02:37:50;41.08;;;39.08;;
13849;SDS011;6995;52.618;13.488;2023-08-12T02:40:16;46.65;;;44.03;;
13849;SDS011;6995;52.618;13.488;2023-08-12T02:42:42;42.45;;;40.25;;
13849;SDS011;6995;52.618;13.488;2023-08-12T02:45:07;44.53;;;41.95;;
13849;SDS011;6995;52.618;13.488;2023-08-12T02:47:33;41.25;;;38.90;;
13849;SDS011;6995;52.618;13.488;2023-08-12T02:49:59;40.28;;;37.80;;
13849;SDS011;6995;52.618;13.488;2023-08-12T02:52:24;42.38;;;40.17;;
13849;SDS011;6995;52.618;13.488;2023-08-12T02:54:50;39.83;;;37.83;;
13849;SDS011;6995;52.618;13.488;2023-08-12T02:57:16;43.30;;;41.20;;
13849;SDS011;6995;52.618;13.488;2023-08-12T02:59:41;40.00;;;37.95;;
13849;SDS011;6995;52.618;13.488;2023-08-12T03:02:07;39.65;;;37.55;;
13849;SDS011;6995;52.618;13.488;2023-08-12T03:04:33;38.45;;;36.47;;
13849;SDS011;6995;52.618;13.488;2023-08-12T03:06:59;42.10;;;39.45;;
13849;SDS011;6995;52.618;13.488;2023-08-12T03:09:24;42.97;;;40.88;;
13849;SDS011;6995;52.618;13.488;2023-08-12T03:11:50;39.35;;;37.17;;
13849;SDS011;6995;52.618;13.488;2023-08-12T03:14:16;37.85;;;35.78;;
13849;SDS011;6995;52.618;13.488;2023-08-12T03:16:41;41.08;;;38.97;;
13849;SDS011;6995;52.618;13.488;2023-08-12T03:19:07;45.28;;;43.08;;
13849;SDS011;6995;52.618;13.488;2023-08-12T03:21:32;48.42;;;46.08;;
13849;SDS011;6995;52.618;13.488;2023-08-12T03:23:59;45.90;;;43.60;;
13849;SDS011;6995;52.618;13.488;2023-08-12T03:26:25;42.55;;;40.47;;
13849;SDS011;6995;52.618;13.488;2023-08-12T03:28:50;42.13;;;39.47;;
13849;SDS011;6995;52.618;13.488;2023-08-12T03:31:16;42.67;;;40.60;;
13849;SDS011;6995;52.618;13.488;2023-08-12T03:33:42;44.78;;;42.38;;
13849;SDS011;6995;52.618;13.488;2023-08-12T03:36:08;45.00;;;42.50;;
13849;SDS011;6995;52.618;13.488;2023-08-12T03:38:34;47.88;;;45.13;;
13849;SDS011;6995;52.618;13.488;2023-08-12T03:41:01;45.25;;;43.00;;
13849;SDS011;6995;52.618;13.488;2023-08-12T03:43:27;44.25;;;41.90;;
13849;SDS011;6995;52.618;13.488;2023-08-12T03:45:53;48.53;;;46.22;;
13849;SDS011;6995;52.618;13.488;2023-08-12T03:48:18;46.80;;;44.30;;
13849;SDS011;6995;52.618;13.488;2023-08-12T03:50:44;45.88;;;43.40;;
13849;SDS011;6995;52.618;13.488;2023-08-12T03:53:12;47.28;;;44.95;;
13849;SDS011;6995;52.618;13.488;2023-08-12T03:55:37;44.33;;;41.88;;
13849;SDS011;6995;52.618;13.488;2023-08-12T03:58:03;46.95;;;44.63;;
13849;SDS011;6995;52.618;13.488;2023-08-12T04:00:29;50.22;;;47.78;;
13849;SDS011;6995;52.618;13.488;2023-08-12T04:02:54;46.95;;;44.65;;
13849;SDS011;6995;52.618;13.488;2023-08-12T04:05:20;46.17;;;43.47;;
13849;SDS011;6995;52.618;13.488;2023-08-12T04:07:46;45.58;;;43.05;;
13849;SDS011;6995;52.618;13.488;2023-08-12T04:10:11;52.83;;;50.10;;
13849;SDS011;6995;52.618;13.488;2023-08-12T04:12:37;49.65;;;47.20;;
13849;SDS011;6995;52.618;13.488;2023-08-12T04:15:03;49.38;;;46.72;;
13849;SDS011;6995;52.618;13.488;2023-08-12T04:17:30;60.97;;;58.13;;
13849;SDS011;6995;52.618;13.488;2023-08-12T04:19:56;56.30;;;53.60;;
13849;SDS011;6995;52.618;13.488;2023-08-12T04:22:22;44.28;;;41.78;;
13849;SDS011;6995;52.618;13.488;2023-08-12T04:24:48;53.95;;;51.30;;
13849;SDS011;6995;52.618;13.488;2023-08-12T04:27:14;46.25;;;43.75;;
13849;SDS011;6995;52.618;13.488;2023-08-12T04:29:41;46.05;;;43.85;;
13849;SDS011;6995;52.618;13.488;2023-08-12T04:32:07;54.08;;;51.25;;
13849;SDS011;6995;52.618;13.488;2023-08-12T04:34:32;48.17;;;45.65;;
13849;SDS011;6995;52.618;13.488;2023-08-12T04:36:58;45.85;;;43.15;;
13849;SDS011;6995;52.618;13.488;2023-08-12T04:39:24;47.38;;;44.85;;
13849;SDS011;6995;52.618;13.488;2023-08-12T04:41:50;50.78;;;48.28;;
13849;SDS011;6995;52.618;13.488;2023-08-12T04:44:16;49.28;;;46.78;;
13849;SDS011;6995;52.618;13.488;2023-08-12T04:46:41;44.20;;;41.80;;
13849;SDS011;6995;52.618;13.488;2023-08-12T04:49:07;44.05;;;41.78;;
13849;SDS011;6995;52.618;13.488;2023-08-12T04:51:33;43.78;;;41.60;;
13849;SDS011;6995;52.618;13.488;2023-08-12T04:53:59;45.90;;;42.83;;
13849;SDS011;6995;52.618;13.488;2023-08-12T04:56:26;45.08;;;42.78;;
13849;SDS011;6995;52.618;13.488;2023-08-12T04:58:54;41.97;;;39.58;;
13849;SDS011;6995;52.618;13.488;2023-08-12T05:01:19;36.45;;;34.60;;
13849;SDS011;6995;52.618;13.488;2023-08-12T05:03:45;34.08;;;32.13;;
13849;SDS011;6995;52.618;13.488;2023-08-12T05:06:11;34.50;;;32.38;;
13849;SDS011;6995;52.618;13.488;2023-08-12T05:08:36;30.98;;;29.17;;
13849;SDS011;6995;52.618;13.488;2023-08-12T05:11:02;32.28;;;30.58;;
13849;SDS011;6995;52.618;13.488;2023-08-12T05:13:28;34.85;;;32.85;;
13849;SDS011;6995;52.618;13.488;2023-08-12T05:15:54;31.80;;;30.10;;
13849;SDS011;6995;52.618;13.488;2023-08-12T05:18:21;31.08;;;29.48;;
13849;SDS011;6995;52.618;13.488;2023-08-12T05:20:48;28.17;;;26.58;;
13849;SDS011;6995;52.618;13.488;2023-08-12T05:23:16;24.92;;;23.33;;
13849;SDS011;6995;52.618;13.488;2023-08-12T05:25:42;24.52;;;22.55;;
13849;SDS011;6995;52.618;13.488;2023-08-12T05:28:07;22.83;;;21.40;;
13849;SDS011;6995;52.618;13.488;2023-08-12T05:30:33;22.27;;;20.73;;
13849;SDS011;6995;52.618;13.488;2023-08-12T05:32:59;21.48;;;20.33;;
13849;SDS011;6995;52.618;13.488;2023-08-12T05:35:25;21.55;;;20.35;;
13849;SDS011;6995;52.618;13.488;2023-08-12T05:37:51;21.15;;;19.85;;
13849;SDS011;6995;52.618;13.488;2023-08-12T05:40:16;23.35;;;21.70;;
13849;SDS011;6995;52.618;13.488;2023-08-12T05:42:42;20.83;;;19.63;;
13849;SDS011;6995;52.618;13.488;2023-08-12T05:45:08;22.02;;;20.48;;
13849;SDS011;6995;52.618;13.488;2023-08-12T05:47:34;22.33;;;20.83;;
13849;SDS011;6995;52.618;13.488;2023-08-12T05:49:59;21.55;;;20.35;;
13849;SDS011;6995;52.618;13.488;2023-08-12T05:52:25;21.52;;;19.85;;
13849;SDS011;6995;52.618;13.488;2023-08-12T05:54:50;21.42;;;20.02;;
13849;SDS011;6995;52.618;13.488;2023-08-12T05:57:16;21.00;;;19.60;;
13849;SDS011;6995;52.618;13.488;2023-08-12T05:59:44;22.35;;;20.95;;
13849;SDS011;6995;52.618;13.488;2023-08-12T06:02:10;23.33;;;22.02;;
13849;SDS011;6995;52.618;13.488;2023-08-12T06:04:35;23.35;;;21.42;;
13849;SDS011;6995;52.618;13.488;2023-08-12T06:07:01;22.08;;;20.77;;
13849;SDS011;6995;52.618;13.488;2023-08-12T06:09:27;24.00;;;22.40;;
13849;SDS011;6995;52.618;13.488;2023-08-12T06:11:52;24.38;;;22.98;;
13849;SDS011;6995;52.618;13.488;2023-08-12T06:14:18;25.23;;;23.42;;
13849;SDS011;6995;52.618;13.488;2023-08-12T06:16:43;25.80;;;24.13;;
13849;SDS011;6995;52.618;13.488;2023-08-12T06:19:09;25.60;;;23.80;;
13849;SDS011;6995;52.618;13.488;2023-08-12T06:21:35;26.27;;;24.77;;
13849;SDS011;6995;52.618;13.488;2023-08-12T06:24:00;22.15;;;20.75;;
13849;SDS011;6995;52.618;13.488;2023-08-12T06:26:26;22.63;;;21.38;;
13849;SDS011;6995;52.618;13.488;2023-08-12T06:28:52;26.48;;;24.90;;
13849;SDS011;6995;52.618;13.488;2023-08-12T06:31:18;27.15;;;25.50;;
13849;SDS011;6995;52.618;13.488;2023-08-12T06:33:43;26.15;;;24.60;;
13849;SDS011;6995;52.618;13.488;2023-08-12T06:36:09;26.98;;;25.38;;
13849;SDS011;6995;52.618;13.488;2023-08-12T06:38:34;28.40;;;26.38;;
13849;SDS011;6995;52.618;13.488;2023-08-12T06:41:00;26.60;;;25.17;;
13849;SDS011;6995;52.618;13.488;2023-08-12T06:43:25;23.55;;;22.13;;
13849;SDS011;6995;52.618;13.488;2023-08-12T06:45:51;22.48;;;20.90;;
13849;SDS011;6995;52.618;13.488;2023-08-12T06:48:17;22.58;;;21.30;;
13849;SDS011;6995;52.618;13.488;2023-08-12T06:50:42;23.52;;;21.83;;
13849;SDS011;6995;52.618;13.488;2023-08-12T06:53:08;26.90;;;25.20;;
13849;SDS011;6995;52.618;13.488;2023-08-12T06:55:34;27.95;;;26.35;;
13849;SDS011;6995;52.618;13.488;2023-08-12T06:57:59;27.05;;;25.65;;
13849;SDS011;6995;52.618;13.488;2023-08-12T07:00:28;28.45;;;26.98;;
13849;SDS011;6995;52.618;13.488;2023-08-12T07:02:54;28.95;;;27.45;;
13849;SDS011;6995;52.618;13.488;2023-08-12T07:05:19;36.13;;;34.05;;
13849;SDS011;6995;52.618;13.488;2023-08-12T07:07:48;24.50;;;23.35;;
13849;SDS011;6995;52.618;13.488;2023-08-12T07:10:15;30.15;;;28.13;;
13849;SDS011;6995;52.618;13.488;2023-08-12T07:12:40;32.83;;;31.23;;
13849;SDS011;6995;52.618;13.488;2023-08-12T07:15:06;30.83;;;29.05;;
13849;SDS011;6995;52.618;13.488;2023-08-12T07:17:32;33.50;;;31.23;;
13849;SDS011;6995;52.618;13.488;2023-08-12T07:19:58;31.60;;;29.80;;
13849;SDS011;6995;52.618;13.488;2023-08-12T07:22:23;29.08;;;27.55;;
13849;SDS011;6995;52.618;13.488;2023-08-12T07:24:49;29.48;;;27.75;;
13849;SDS011;6995;52.618;13.488;2023-08-12T07:27:14;28.13;;;26.60;;
13849;SDS011;6995;52.618;13.488;2023-08-12T07:29:40;26.35;;;24.85;;
13849;SDS011;6995;52.618;13.488;2023-08-12T07:32:06;25.88;;;24.30;;
13849;SDS011;6995;52.618;13.488;2023-08-12T07:34:31;24.85;;;23.55;;
13849;SDS011;6995;52.618;13.488;2023-08-12T07:36:57;26.13;;;24.55;;
13849;SDS011;6995;52.618;13.488;2023-08-12T07:39:23;28.95;;;27.45;;
13849;SDS011;6995;52.618;13.488;2023-08-12T07:41:48;25.65;;;24.23;;
13849;SDS011;6995;52.618;13.488;2023-08-12T07:44:14;26.92;;;25.27;;
13849;SDS011;6995;52.618;13.488;2023-08-12T07:46:39;23.95;;;22.50;;
13849;SDS011;6995;52.618;13.488;2023-08-12T07:49:05;24.05;;;22.58;;
13849;SDS011;6995;52.618;13.488;2023-08-12T07:51:31;23.80;;;22.10;;
13849;SDS011;6995;52.618;13.488;2023-08-12T07:53:56;21.85;;;20.65;;
13849;SDS011;6995;52.618;13.488;2023-08-12T07:56:22;23.52;;;22.15;;
13849;SDS011;6995;52.618;13.488;2023-08-12T07:58:47;23.50;;;22.08;;
13849;SDS011;6995;52.618;13.488;2023-08-12T08:01:13;23.35;;;21.98;;
13849;SDS011;6995;52.618;13.488;2023-08-12T08:03:39;23.58;;;22.08;;
13849;SDS011;6995;52.618;13.488;2023-08-12T08:06:04;24.10;;;22.70;;
13849;SDS011;6995;52.618;13.488;2023-08-12T08:08:30;24.67;;;23.23;;
13849;SDS011;6995;52.618;13.488;2023-08-12T08:10:55;25.15;;;23.65;;
13849;SDS011;6995;52.618;13.488;2023-08-12T08:13:21;25.52;;;24.20;;
13849;SDS011;6995;52.618;13.488;2023-08-12T08:15:47;21.73;;;20.42;;
13849;SDS011;6995;52.618;13.488;2023-08-12T08:18:12;25.63;;;23.98;;
13849;SDS011;6995;52.618;13.488;2023-08-12T08:20:38;24.85;;;23.25;;
13849;SDS011;6995;52.618;13.488;2023-08-12T08:23:04;23.83;;;22.40;;
13849;SDS011;6995;52.618;13.488;2023-08-12T08:25:30;23.45;;;21.85;;
13849;SDS011;6995;52.618;13.488;2023-08-12T08:27:55;24.00;;;22.40;;
13849;SDS011;6995;52.618;13.488;2023-08-12T08:30:21;25.73;;;24.05;;
13849;SDS011;6995;52.618;13.488;2023-08-12T08:32:47;25.15;;;23.70;;
13849;SDS011;6995;52.618;13.488;2023-08-12T08:35:13;26.60;;;25.08;;
13849;SDS011;6995;52.618;13.488;2023-08-12T08:37:40;26.77;;;25.27;;
13849;SDS011;6995;52.618;13.488;2023-08-12T08:40:06;28.63;;;26.92;;
13849;SDS011;6995;52.618;13.488;2023-08-12T08:42:33;26.02;;;24.30;;
13849;SDS011;6995;52.618;13.488;2023-08-12T08:45:00;29.63;;;27.38;;
13849;SDS011;6995;52.618;13.488;2023-08-12T08:47:28;27.13;;;25.63;;
13849;SDS011;6995;52.618;13.488;2023-08-12T08:49:54;35.92;;;34.15;;
13849;SDS011;6995;52.618;13.488;2023-08-12T08:52:21;29.23;;;27.73;;
13849;SDS011;6995;52.618;13.488;2023-08-12T08:54:48;32.03;;;30.25;;
13849;SDS011;6995;52.618;13.488;2023-08-12T08:57:14;29.20;;;27.80;;
13849;SDS011;6995;52.618;13.488;2023-08-12T08:59:40;31.23;;;29.63;;
13849;SDS011;6995;52.618;13.488;2023-08-12T09:02:08;29.58;;;27.77;;
13849;SDS011;6995;52.618;13.488;2023-08-12T09:04:42;31.67;;;29.80;;
13849;SDS011;6995;52.618;13.488;2023-08-12T09:07:11;30.50;;;28.83;;
13849;SDS011;6995;52.618;13.488;2023-08-12T09:09:39;29.35;;;27.45;;
13849;SDS011;6995;52.618;13.488;2023-08-12T09:12:09;29.73;;;28.13;;
13849;SDS011;6995;52.618;13.488;2023-08-12T09:14:39;30.90;;;29.25;;
13849;SDS011;6995;52.618;13.488;2023-08-12T09:17:05;35.92;;;34.00;;
13849;SDS011;6995;52.618;13.488;2023-08-12T09:19:32;35.90;;;34.03;;
13849;SDS011;6995;52.618;13.488;2023-08-12T09:21:57;32.55;;;30.70;;
13849;SDS011;6995;52.618;13.488;2023-08-12T09:24:26;31.35;;;29.75;;
13849;SDS011;6995;52.618;13.488;2023-08-12T09:26:53;31.15;;;29.52;;
13849;SDS011;6995;52.618;13.488;2023-08-12T09:29:22;27.02;;;25.42;;
13849;SDS011;6995;52.618;13.488;2023-08-12T09:31:49;25.77;;;24.00;;
13849;SDS011;6995;52.618;13.488;2023-08-12T09:34:15;24.83;;;23.38;;
13849;SDS011;6995;52.618;13.488;2023-08-12T09:36:43;25.42;;;23.48;;
13849;SDS011;6995;52.618;13.488;2023-08-12T09:39:09;23.67;;;22.10;;
13849;SDS011;6995;52.618;13.488;2023-08-12T09:41:35;23.63;;;22.23;;
13849;SDS011;6995;52.618;13.488;2023-08-12T09:44:02;24.17;;;22.88;;
13849;SDS011;6995;52.618;13.488;2023-08-12T09:46:28;24.42;;;22.77;;
13849;SDS011;6995;52.618;13.488;2023-08-12T09:48:54;25.42;;;23.65;;
13849;SDS011;6995;52.618;13.488;2023-08-12T09:51:19;26.23;;;24.67;;
13849;SDS011;6995;52.618;13.488;2023-08-12T09:53:49;24.33;;;23.02;;
13849;SDS011;6995;52.618;13.488;2023-08-12T09:56:17;24.60;;;23.20;;
13849;SDS011;6995;52.618;13.488;2023-08-12T09:58:46;25.08;;;23.63;;
13849;SDS011;6995;52.618;13.488;2023-08-12T10:01:14;26.70;;;25.10;;
13849;SDS011;6995;52.618;13.488;2023-08-12T10:03:43;26.55;;;24.85;;
13849;SDS011;6995;52.618;13.488;2023-08-12T10:06:13;27.17;;;25.77;;
13849;SDS011;6995;52.618;13.488;2023-08-12T10:08:40;29.83;;;28.23;;
13849;SDS011;6995;52.618;13.488;2023-08-12T10:11:06;30.88;;;29.38;;
13849;SDS011;6995;52.618;13.488;2023-08-12T10:13:33;32.38;;;30.77;;
13849;SDS011;6995;52.618;13.488;2023-08-12T10:16:02;37.08;;;35.25;;
13849;SDS011;6995;52.618;13.488;2023-08-12T10:18:31;41.28;;;39.17;;
13849;SDS011;6995;52.618;13.488;2023-08-12T10:20:58;38.42;;;36.55;;
13849;SDS011;6995;52.618;13.488;2023-08-12T10:23:25;36.97;;;35.10;;
13849;SDS011;6995;52.618;13.488;2023-08-12T10:25:53;35.15;;;33.20;;
13849;SDS011;6995;52.618;13.488;2023-08-12T10:28:22;28.75;;;27.05;;
13849;SDS011;6995;52.618;13.488;2023-08-12T10:30:48;29.08;;;27.52;;
13849;SDS011;6995;52.618;13.488;2023-08-12T10:33:14;30.13;;;28.00;;
13849;SDS011;6995;52.618;13.488;2023-08-12T10:35:45;31.67;;;29.77;;
13849;SDS011;6995;52.618;13.488;2023-08-12T10:38:21;31.05;;;29.10;;
13849;SDS011;6995;52.618;13.488;2023-08-12T10:40:50;29.42;;;27.83;;
13849;SDS011;6995;52.618;13.488;2023-08-12T10:43:16;34.15;;;32.30;;
13849;SDS011;6995;52.618;13.488;2023-08-12T10:45:54;37.85;;;35.53;;
13849;SDS011;6995;52.618;13.488;2023-08-12T10:48:26;41.63;;;39.40;;
13849;SDS011;6995;52.618;13.488;2023-08-12T10:50:53;38.85;;;36.95;;
13849;SDS011;6995;52.618;13.488;2023-08-12T10:55:48;47.63;;;45.33;;
13849;SDS011;6995;52.618;13.488;2023-08-12T10:58:23;42.40;;;40.08;;
13849;SDS011;6995;52.618;13.488;2023-08-12T11:00:53;43.42;;;41.22;;
13849;SDS011;6995;52.618;13.488;2023-08-12T11:03:22;50.60;;;48.03;;
13849;SDS011;6995;52.618;13.488;2023-08-12T11:05:48;45.17;;;42.78;;
13849;SDS011;6995;52.618;13.488;2023-08-12T11:08:15;36.40;;;34.42;;
13849;SDS011;6995;52.618;13.488;2023-08-12T11:10:41;57.17;;;54.25;;
13849;SDS011;6995;52.618;13.488;2023-08-12T11:13:08;53.92;;;51.22;;
13849;SDS011;6995;52.618;13.488;2023-08-12T11:15:41;34.90;;;33.03;;
13849;SDS011;6995;52.618;13.488;2023-08-12T11:18:12;42.08;;;39.60;;
13849;SDS011;6995;52.618;13.488;2023-08-12T11:20:41;35.78;;;33.75;;
13849;SDS011;6995;52.618;13.488;2023-08-12T11:23:07;39.80;;;37.65;;
13849;SDS011;6995;52.618;13.488;2023-08-12T11:25:34;37.30;;;35.47;;
13849;SDS011;6995;52.618;13.488;2023-08-12T11:28:00;39.28;;;37.22;;
13849;SDS011;6995;52.618;13.488;2023-08-12T11:30:26;36.05;;;33.95;;
13849;SDS011;6995;52.618;13.488;2023-08-12T11:32:53;31.77;;;29.63;;
13849;SDS011;6995;52.618;13.488;2023-08-12T11:35:19;30.92;;;28.83;;
13849;SDS011;6995;52.618;13.488;2023-08-12T11:37:46;27.45;;;25.50;;
13849;SDS011;6995;52.618;13.488;2023-08-12T11:40:14;34.28;;;32.35;;
13849;SDS011;6995;52.618;13.488;2023-08-12T11:42:45;31.65;;;30.05;;
13849;SDS011;6995;52.618;13.488;2023-08-12T11:45:13;27.20;;;25.60;;
13849;SDS011;6995;52.618;13.488;2023-08-12T11:47:40;27.50;;;25.80;;
13849;SDS011;6995;52.618;13.488;2023-08-12T11:50:06;54.83;;;52.08;;
13849;SDS011;6995;52.618;13.488;2023-08-12T11:52:34;27.75;;;26.23;;
13849;SDS011;6995;52.618;13.488;2023-08-12T11:55:01;32.42;;;30.63;;
13849;SDS011;6995;52.618;13.488;2023-08-12T11:57:27;28.40;;;26.67;;
13849;SDS011;6995;52.618;13.488;2023-08-12T11:59:58;26.33;;;24.83;;
13849;SDS011;6995;52.618;13.488;2023-08-12T12:02:24;26.27;;;24.60;;
13849;SDS011;6995;52.618;13.488;2023-08-12T12:04:51;30.80;;;28.95;;
13849;SDS011;6995;52.618;13.488;2023-08-12T12:07:21;40.90;;;38.67;;
13849;SDS011;6995;52.618;13.488;2023-08-12T12:09:52;44.72;;;42.55;;
13849;SDS011;6995;52.618;13.488;2023-08-12T12:12:22;37.70;;;35.80;;
13849;SDS011;6995;52.618;13.488;2023-08-12T12:14:50;44.28;;;41.88;;
13849;SDS011;6995;52.618;13.488;2023-08-12T12:17:20;54.30;;;50.42;;
13849;SDS011;6995;52.618;13.488;2023-08-12T12:19:47;35.22;;;33.40;;
13849;SDS011;6995;52.618;13.488;2023-08-12T12:22:16;35.35;;;33.55;;
13849;SDS011;6995;52.618;13.488;2023-08-12T12:24:45;42.20;;;40.13;;
13849;SDS011;6995;52.618;13.488;2023-08-12T12:27:12;33.70;;;32.00;;
13849;SDS011;6995;52.618;13.488;2023-08-12T12:29:39;34.15;;;32.35;;
13849;SDS011;6995;52.618;13.488;2023-08-12T12:32:04;35.58;;;33.80;;
13849;SDS011;6995;52.618;13.488;2023-08-12T12:34:30;40.60;;;38.55;;
13849;SDS011;6995;52.618;13.488;2023-08-12T12:36:56;34.17;;;32.38;;
13849;SDS011;6995;52.618;13.488;2023-08-12T12:39:21;37.60;;;35.80;;
13849;SDS011;6995;52.618;13.488;2023-08-12T12:41:49;36.22;;;34.33;;
13849;SDS011;6995;52.618;13.488;2023-08-12T12:44:15;34.00;;;32.30;;
13849;SDS011;6995;52.618;13.488;2023-08-12T12:46:41;28.77;;;27.17;;
13849;SDS011;6995;52.618;13.488;2023-08-12T12:49:06;26.60;;;25.15;;
13849;SDS011;6995;52.618;13.488;2023-08-12T12:51:32;25.52;;;23.88;;
13849;SDS011;6995;52.618;13.488;2023-08-12T12:53:58;24.83;;;23.35;;
13849;SDS011;6995;52.618;13.488;2023-08-12T12:56:24;23.27;;;21.92;;
13849;SDS011;6995;52.618;13.488;2023-08-12T12:58:50;24.33;;;22.45;;
13849;SDS011;6995;52.618;13.488;2023-08-12T13:01:16;24.15;;;22.85;;
13849;SDS011;6995;52.618;13.488;2023-08-12T13:03:41;25.23;;;23.85;;
13849;SDS011;6995;52.618;13.488;2023-08-12T13:06:07;29.27;;;27.27;;
13849;SDS011;6995;52.618;13.488;2023-08-12T13:08:32;32.92;;;31.08;;
13849;SDS011;6995;52.618;13.488;2023-08-12T13:10:58;33.30;;;31.58;;
13849;SDS011;6995;52.618;13.488;2023-08-12T13:13:26;38.75;;;36.47;;
13849;SDS011;6995;52.618;13.488;2023-08-12T13:15:52;38.53;;;36.55;;
13849;SDS011;6995;52.618;13.488;2023-08-12T13:18:18;30.40;;;28.55;;
13849;SDS011;6995;52.618;13.488;2023-08-12T13:20:43;30.45;;;28.23;;
13849;SDS011;6995;52.618;13.488;2023-08-12T13:23:09;26.23;;;24.75;;
13849;SDS011;6995;52.618;13.488;2023-08-12T13:25:35;92.97;;;88.75;;
13849;SDS011;6995;52.618;13.488;2023-08-12T13:28:01;37.42;;;35.53;;
13849;SDS011;6995;52.618;13.488;2023-08-12T13:30:27;56.10;;;53.40;;
13849;SDS011;6995;52.618;13.488;2023-08-12T13:32:53;58.42;;;55.60;;
13849;SDS011;6995;52.618;13.488;2023-08-12T13:35:20;106.05;;;101.35;;
13849;SDS011;6995;52.618;13.488;2023-08-12T13:37:46;139.98;;;133.77;;
13849;SDS011;6995;52.618;13.488;2023-08-12T13:40:14;180.50;;;172.10;;
13849;SDS011;6995;52.618;13.488;2023-08-12T13:42:41;371.38;;;353.77;;
13849;SDS011;6995;52.618;13.488;2023-08-12T13:45:07;376.52;;;358.80;;
13849;SDS011;6995;52.618;13.488;2023-08-12T13:47:35;435.15;;;413.67;;
13849;SDS011;6995;52.618;13.488;2023-08-12T13:50:01;474.58;;;450.48;;
13849;SDS011;6995;52.618;13.488;2023-08-12T13:52:28;496.25;;;471.10;;
13849;SDS011;6995;52.618;13.488;2023-08-12T13:54:53;521.83;;;494.40;;
13849;SDS011;6995;52.618;13.488;2023-08-12T13:57:19;392.60;;;374.08;;
13849;SDS011;6995;52.618;13.488;2023-08-12T13:59:44;444.95;;;423.33;;
13849;SDS011;6995;52.618;13.488;2023-08-12T14:02:12;400.30;;;381.60;;
13849;SDS011;6995;52.618;13.488;2023-08-12T14:04:38;467.88;;;445.17;;
13849;SDS011;6995;52.618;13.488;2023-08-12T14:07:04;326.42;;;311.35;;
13849;SDS011;6995;52.618;13.488;2023-08-12T14:09:30;382.73;;;363.55;;
13849;SDS011;6995;52.618;13.488;2023-08-12T14:11:56;515.05;;;489.45;;
13849;SDS011;6995;52.618;13.488;2023-08-12T14:14:22;441.85;;;420.83;;
13849;SDS011;6995;52.618;13.488;2023-08-12T14:16:50;434.30;;;412.98;;
13849;SDS011;6995;52.618;13.488;2023-08-12T14:19:15;554.65;;;525.53;;
13849;SDS011;6995;52.618;13.488;2023-08-12T14:21:42;401.88;;;382.60;;
13849;SDS011;6995;52.618;13.488;2023-08-12T14:24:08;460.23;;;437.80;;